createdAt,value
2022-11-18T00:00:21.599Z,97753.38
2022-11-18T00:02:53.187Z,97758.78
2022-11-18T00:05:24.762Z,97760.94
2022-11-18T00:07:56.355Z,97763.56
2022-11-18T00:10:28.008Z,97757.19
2022-11-18T00:13:18.110Z,97766.03
2022-11-18T00:15:49.775Z,97759.19
2022-11-18T00:18:21.448Z,97760.00
2022-11-18T00:20:53.080Z,97761.38
2022-11-18T00:23:24.670Z,97759.47
2022-11-18T00:26:01.310Z,97760.09
2022-11-18T00:28:33.921Z,97748.28
2022-11-18T00:31:14.006Z,97748.16
2022-11-18T00:33:46.809Z,97745.38
2022-11-18T00:36:20.538Z,97746.47
2022-11-18T00:38:52.274Z,97755.47
2022-11-18T00:41:24.540Z,97751.53
2022-11-18T00:43:56.254Z,97742.03
2022-11-18T00:46:28.222Z,97748.16
2022-11-18T00:49:02.831Z,97742.28
2022-11-18T00:51:34.817Z,97747.88
2022-11-18T00:54:06.748Z,97753.66
2022-11-18T00:56:38.674Z,97765.06
2022-11-18T00:59:10.346Z,97755.22
2022-11-18T01:01:42.080Z,97752.75
2022-11-18T01:04:13.902Z,97750.56
2022-11-18T01:06:45.534Z,97751.63
2022-11-18T01:09:17.367Z,97759.94
2022-11-18T01:12:10.793Z,97757.16
2022-11-18T01:14:42.510Z,97770.34
2022-11-18T01:17:14.399Z,97762.78
2022-11-18T01:19:46.131Z,97752.97
2022-11-18T01:22:17.787Z,97755.34
2022-11-18T01:24:49.360Z,97750.81
2022-11-18T01:27:21.039Z,97747.38
2022-11-18T01:29:56.643Z,97755.59
2022-11-18T01:32:29.083Z,97750.16
2022-11-18T01:35:00.875Z,97742.31
2022-11-18T01:37:32.515Z,97743.13
2022-11-18T01:40:08.782Z,97742.16
2022-11-18T01:42:40.397Z,97740.41
2022-11-18T01:45:11.962Z,97735.09
2022-11-18T01:47:51.932Z,97731.13
2022-11-18T01:50:24.708Z,97724.25
2022-11-18T01:53:05.665Z,97717.75
2022-11-18T01:55:46.297Z,97715.50
2022-11-18T01:58:27.554Z,97727.91
2022-11-18T02:01:04.455Z,97714.81
2022-11-18T02:03:37.030Z,97711.09
2022-11-18T02:06:11.898Z,97715.31
2022-11-18T02:08:44.093Z,97724.06
2022-11-18T02:11:34.908Z,97725.50
2022-11-18T02:14:09.813Z,97721.09
2022-11-18T02:16:53.510Z,97721.91
2022-11-18T02:19:30.788Z,97723.78
2022-11-18T02:22:14.538Z,97720.22
2022-11-18T02:25:19.354Z,97720.22
2022-11-18T02:28:03.446Z,97708.81
2022-11-18T02:30:56.376Z,97708.47
2022-11-18T02:33:31.010Z,97707.59
2022-11-18T02:36:12.419Z,97715.44
2022-11-18T02:38:50.278Z,97711.19
2022-11-18T02:41:28.079Z,97707.59
2022-11-18T02:44:05.962Z,97710.31
2022-11-18T02:46:40.233Z,97702.63
2022-11-18T02:49:27.682Z,97709.56
2022-11-18T02:52:02.118Z,97702.53
2022-11-18T02:54:37.413Z,97702.25
2022-11-18T02:57:09.425Z,97697.66
2022-11-18T02:59:44.040Z,97700.28
2022-11-18T03:02:18.007Z,97693.41
2022-11-18T03:04:54.061Z,97696.84
2022-11-18T03:07:30.084Z,97694.06
2022-11-18T03:10:02.967Z,97693.25
2022-11-18T03:12:49.058Z,97688.00
2022-11-18T03:15:35.027Z,97693.16
2022-11-18T03:18:33.644Z,97687.47
2022-11-18T03:21:24.801Z,97689.09
2022-11-18T03:24:25.573Z,97686.41
2022-11-18T03:27:23.994Z,97693.03
2022-11-18T03:30:03.865Z,97690.94
2022-11-18T03:32:40.387Z,97692.13
2022-11-18T03:35:21.159Z,97694.84
2022-11-18T03:37:58.368Z,97686.28
2022-11-18T03:40:32.625Z,97693.88
2022-11-18T03:43:13.850Z,97685.13
2022-11-18T03:45:49.424Z,97690.09
2022-11-18T03:48:29.536Z,97683.66
2022-11-18T03:51:07.171Z,97679.34
2022-11-18T03:53:43.290Z,97676.16
2022-11-18T03:56:19.557Z,97681.09
2022-11-18T03:59:02.806Z,97683.38
2022-11-18T04:01:46.095Z,97679.41
2022-11-18T04:04:18.353Z,97688.78
2022-11-18T04:07:18.590Z,97689.78
2022-11-18T04:10:18.010Z,97692.84
2022-11-18T04:13:06.846Z,97687.72
2022-11-18T04:15:41.531Z,97690.81
2022-11-18T04:18:13.318Z,97691.41
2022-11-18T04:20:44.938Z,97686.44
2022-11-18T04:23:16.539Z,97686.41
2022-11-18T04:25:49.248Z,97689.56
2022-11-18T04:28:22.846Z,97690.47
2022-11-18T04:30:54.461Z,97694.41
2022-11-18T04:33:26.180Z,97685.91
2022-11-18T04:35:57.791Z,97694.22
2022-11-18T04:38:29.416Z,97690.25
2022-11-18T04:41:01.047Z,97700.03
2022-11-18T04:43:32.760Z,97699.31
2022-11-18T04:46:04.530Z,97706.91
2022-11-18T04:48:36.193Z,97702.72
2022-11-18T04:51:10.613Z,97701.72
2022-11-18T04:53:42.293Z,97709.88
2022-11-18T04:56:13.873Z,97712.59
2022-11-18T04:58:45.500Z,97710.78
2022-11-18T05:01:17.213Z,97715.19
2022-11-18T05:03:52.018Z,97705.53
2022-11-18T05:06:23.664Z,97699.81
2022-11-18T05:08:56.899Z,97699.25
2022-11-18T05:11:47.209Z,97702.00
2022-11-18T05:14:19.196Z,97701.63
2022-11-18T05:16:55.680Z,97698.28
2022-11-18T05:19:27.357Z,97697.47
2022-11-18T05:21:59.522Z,97692.50
2022-11-18T05:24:31.129Z,97695.06
2022-11-18T05:27:03.128Z,97697.69
2022-11-18T05:29:34.786Z,97704.19
2022-11-18T05:32:06.432Z,97699.94
2022-11-18T05:34:39.969Z,97701.91
2022-11-18T05:37:11.772Z,97700.06
2022-11-18T05:39:43.409Z,97701.59
2022-11-18T05:42:33.554Z,97701.94
2022-11-18T05:45:05.871Z,97700.84
2022-11-18T05:47:57.440Z,97701.22
2022-11-18T05:50:29.110Z,97707.19
2022-11-18T05:53:02.151Z,97714.44
2022-11-18T05:55:42.271Z,97716.78
2022-11-18T05:58:14.048Z,97714.38
2022-11-18T06:00:48.183Z,97709.31
2022-11-18T06:03:30.284Z,97712.19
2022-11-18T06:06:05.445Z,97722.72
2022-11-18T06:08:46.157Z,97723.25
2022-11-18T06:11:19.584Z,97723.69
2022-11-18T06:14:16.206Z,97728.59
2022-11-18T06:16:53.538Z,97726.16
2022-11-18T06:19:26.250Z,97731.13
2022-11-18T06:21:59.707Z,97729.28
2022-11-18T06:24:31.714Z,97733.97
2022-11-18T06:27:03.695Z,97734.41
2022-11-18T06:29:35.414Z,97740.69
2022-11-18T06:32:07.132Z,97736.03
2022-11-18T06:34:41.703Z,97741.50
2022-11-18T06:37:20.970Z,97744.81
2022-11-18T06:39:52.657Z,97742.84
2022-11-18T06:42:42.589Z,97742.03
2022-11-18T06:45:14.453Z,97747.09
2022-11-18T06:47:46.141Z,97746.94
2022-11-18T06:50:17.832Z,97749.34
2022-11-18T06:52:49.424Z,97746.72
2022-11-18T06:55:21.030Z,97756.59
2022-11-18T06:57:52.683Z,97758.09
2022-11-18T07:00:24.294Z,97752.88
2022-11-18T07:02:55.935Z,97748.44
2022-11-18T07:05:27.702Z,97755.13
2022-11-18T07:07:59.575Z,97758.03
2022-11-18T07:10:31.264Z,97759.31
2022-11-18T07:13:02.953Z,97767.47
2022-11-18T07:15:37.682Z,97763.94
2022-11-18T07:18:09.315Z,97772.09
2022-11-18T07:20:41.295Z,97768.31
2022-11-18T07:23:15.451Z,97767.97
2022-11-18T07:25:47.127Z,97773.91
2022-11-18T07:28:18.777Z,97769.72
2022-11-18T07:30:51.085Z,97778.34
2022-11-18T07:33:22.781Z,97779.84
2022-11-18T07:35:54.391Z,97777.53
2022-11-18T07:38:26.217Z,97780.31
2022-11-18T07:41:09.118Z,97786.91
2022-11-18T07:43:41.533Z,97776.47
2022-11-18T07:46:17.250Z,97780.88
2022-11-18T07:48:50.989Z,97773.59
2022-11-18T07:51:27.082Z,97782.44
2022-11-18T07:53:58.696Z,97785.53
2022-11-18T07:56:30.526Z,97782.97
2022-11-18T07:59:02.899Z,97783.63
2022-11-18T08:01:35.449Z,97780.84
2022-11-18T08:04:09.585Z,97778.50
2022-11-18T08:06:41.254Z,97772.34
2022-11-18T08:09:12.983Z,97779.81
2022-11-18T08:11:44.642Z,97779.94
2022-11-18T08:14:16.278Z,97778.16
2022-11-18T08:16:48.000Z,97785.47
2022-11-18T08:19:20.011Z,97780.19
2022-11-18T08:21:51.946Z,97775.13
2022-11-18T08:24:23.731Z,97778.50
2022-11-18T08:26:55.386Z,97783.69
2022-11-18T08:29:28.214Z,97779.09
2022-11-18T08:32:00.106Z,97778.88
2022-11-18T08:34:31.947Z,97784.38
2022-11-18T08:37:03.583Z,97780.69
2022-11-18T08:39:35.748Z,97782.28
2022-11-18T08:42:07.725Z,97779.25
2022-11-18T08:44:39.662Z,97779.69
2022-11-18T08:47:11.660Z,97785.47
2022-11-18T08:49:43.786Z,97792.06
2022-11-18T08:52:16.809Z,97790.56
2022-11-18T08:54:48.417Z,97791.56
2022-11-18T08:57:20.022Z,97793.38
2022-11-18T08:59:52.130Z,97790.75
2022-11-18T09:02:24.520Z,97792.44
2022-11-18T09:04:56.203Z,97791.25
2022-11-18T09:07:27.890Z,97788.28
2022-11-18T09:09:59.691Z,97798.66
2022-11-18T09:12:31.385Z,97799.78
2022-11-18T09:15:13.590Z,97797.09
2022-11-18T09:17:46.267Z,97799.88
2022-11-18T09:20:18.072Z,97801.78
2022-11-18T09:22:49.838Z,97793.03
2022-11-18T09:25:22.007Z,97794.25
2022-11-18T09:27:55.470Z,97792.47
2022-11-18T09:30:27.672Z,97788.81
2022-11-18T09:32:59.336Z,97793.41
2022-11-18T09:35:32.234Z,97794.88
2022-11-18T09:38:03.851Z,97802.47
2022-11-18T09:40:58.629Z,97805.06
2022-11-18T09:43:57.335Z,97804.00
2022-11-18T09:47:07.544Z,97814.09
2022-11-18T09:49:41.147Z,97810.63
2022-11-18T09:52:12.675Z,97814.41
2022-11-18T09:54:44.774Z,97818.91
2022-11-18T09:57:36.766Z,97820.97
2022-11-18T10:00:26.422Z,97816.44
2022-11-18T10:03:04.956Z,97817.81
2022-11-18T10:06:09.692Z,97817.13
2022-11-18T10:08:55.744Z,97812.47
2022-11-18T10:11:40.259Z,97806.59
2022-11-18T10:14:23.120Z,97817.25
2022-11-18T10:17:22.816Z,97808.56
2022-11-18T10:20:07.009Z,97803.00
2022-11-18T10:22:54.279Z,97806.38
2022-11-18T10:25:26.207Z,97812.88
2022-11-18T10:28:14.838Z,97814.06
2022-11-18T10:30:46.620Z,97809.13
2022-11-18T10:33:25.639Z,97812.66
2022-11-18T10:36:26.896Z,97811.09
2022-11-18T10:39:15.622Z,97809.22
2022-11-18T10:41:52.150Z,97810.03
2022-11-18T10:44:33.779Z,97823.19
2022-11-18T10:47:43.699Z,97824.72
2022-11-18T10:50:29.069Z,97823.69
2022-11-18T10:53:02.069Z,97822.19
2022-11-18T10:55:33.853Z,97823.34
2022-11-18T10:58:13.551Z,97829.53
2022-11-18T11:00:51.450Z,97834.56
2022-11-18T11:03:44.213Z,97830.47
2022-11-18T11:06:31.514Z,97836.16
2022-11-18T11:09:24.963Z,97832.69
2022-11-18T11:12:12.617Z,97835.81
2022-11-18T11:14:53.493Z,97834.47
2022-11-18T11:18:09.257Z,97830.59
2022-11-18T11:20:41.317Z,97830.91
2022-11-18T11:23:19.116Z,97829.66
2022-11-18T11:29:07.477Z,97832.56
2022-11-18T11:31:55.618Z,97834.88
2022-11-18T11:35:07.154Z,97835.28
2022-11-18T11:37:55.019Z,97841.50
2022-11-18T11:41:08.448Z,97843.66
2022-11-18T11:44:08.840Z,97846.66
2022-11-18T11:47:38.412Z,97844.31
2022-11-18T11:50:17.401Z,97860.88
2022-11-18T11:52:49.063Z,97847.63
2022-11-18T11:55:21.638Z,97858.66
2022-11-18T11:58:13.612Z,97862.44
2022-11-18T12:01:03.672Z,97871.78
2022-11-18T12:03:52.061Z,97878.81
2022-11-18T12:06:24.020Z,97879.31
2022-11-18T12:09:07.286Z,97883.72
2022-11-18T12:11:45.218Z,97879.47
2022-11-18T12:14:39.871Z,97883.25
2022-11-18T12:17:28.362Z,97892.44
2022-11-18T12:19:59.960Z,97896.16
2022-11-18T12:23:09.619Z,97894.38
2022-11-18T12:26:02.044Z,97902.22
2022-11-18T12:28:43.341Z,97904.66
2022-11-18T12:31:18.222Z,97905.16
2022-11-18T12:33:53.933Z,97917.75
2022-11-18T12:36:35.745Z,97912.38
2022-11-18T12:39:36.247Z,97916.44
2022-11-18T12:43:01.758Z,97925.56
2022-11-18T12:45:43.339Z,97930.59
2022-11-18T12:48:27.408Z,97938.63
2022-11-18T12:51:22.395Z,97933.72
2022-11-18T12:53:54.455Z,97936.97
2022-11-18T12:56:35.454Z,97931.56
2022-11-18T12:59:13.018Z,97936.28
2022-11-18T13:01:44.706Z,97934.81
2022-11-18T13:04:22.306Z,97934.81
2022-11-18T13:06:56.296Z,97943.94
2022-11-18T13:09:32.949Z,97944.28
2022-11-18T13:12:12.785Z,97953.06
2022-11-18T13:15:04.226Z,97946.56
2022-11-18T13:17:58.569Z,97945.72
2022-11-18T13:20:37.460Z,97947.66
2022-11-18T13:23:30.658Z,97937.91
2022-11-18T13:26:16.047Z,97929.78
2022-11-18T13:29:16.264Z,97939.38
2022-11-18T13:32:15.508Z,97945.63
2022-11-18T13:34:50.357Z,97943.34
2022-11-18T13:37:26.501Z,97950.00
2022-11-18T13:39:58.358Z,97958.47
2022-11-18T13:42:31.766Z,97956.69
2022-11-18T13:45:04.183Z,97963.19
2022-11-18T13:47:51.588Z,97970.00
2022-11-18T13:50:40.448Z,97974.09
2022-11-18T13:53:19.067Z,97983.25
2022-11-18T13:55:56.311Z,97973.63
2022-11-18T14:01:36.651Z,97973.13
2022-11-18T14:04:21.215Z,97971.16
2022-11-18T14:06:53.394Z,97974.78
2022-11-18T14:09:30.559Z,97972.34
2022-11-18T14:12:28.853Z,97980.44
2022-11-18T14:15:34.683Z,97972.13
2022-11-18T14:18:23.062Z,97981.59
2022-11-18T14:20:55.033Z,97983.53
2022-11-18T14:23:36.979Z,97980.72
2022-11-18T14:26:09.896Z,97983.19
2022-11-18T14:28:55.007Z,97987.09
2022-11-18T14:31:29.016Z,97994.25
2022-11-18T14:34:05.246Z,98004.34
2022-11-18T14:36:36.874Z,98009.69
2022-11-18T14:39:29.505Z,98025.34
2022-11-18T14:42:01.908Z,98027.56
2022-11-18T14:44:34.572Z,98026.09
2022-11-18T14:47:24.616Z,98025.06
2022-11-18T14:49:56.226Z,98023.06
2022-11-18T14:52:30.208Z,98026.91
2022-11-18T14:55:01.879Z,98036.88
2022-11-18T14:57:33.598Z,98037.25
2022-11-18T15:00:05.793Z,98042.53
2022-11-18T15:02:37.441Z,98042.50
2022-11-18T15:05:09.371Z,98054.72
2022-11-18T15:07:41.042Z,98054.03
2022-11-18T15:10:17.803Z,98059.03
2022-11-18T15:12:49.389Z,98046.13
2022-11-18T15:15:21.053Z,98048.09
2022-11-18T15:17:54.011Z,98054.72
2022-11-18T15:20:28.969Z,98059.03
2022-11-18T15:23:00.695Z,98060.31
2022-11-18T15:25:32.478Z,98055.56
2022-11-18T15:28:04.298Z,98071.19
2022-11-18T15:30:36.401Z,98087.09
2022-11-18T15:33:10.110Z,98085.47
2022-11-18T15:35:41.728Z,98083.81
2022-11-18T15:38:13.395Z,98087.00
2022-11-18T15:40:45.105Z,98092.91
2022-11-18T15:43:17.888Z,98099.16
2022-11-18T15:45:57.011Z,98101.22
2022-11-18T15:48:28.716Z,98106.88
2022-11-18T15:51:00.393Z,98110.47
2022-11-18T15:53:32.099Z,98110.75
2022-11-18T15:56:19.081Z,98119.16
2022-11-18T15:58:57.119Z,98123.69
2022-11-18T16:01:32.210Z,98128.63
2022-11-18T16:04:05.819Z,98130.06
2022-11-18T16:06:38.042Z,98131.03
2022-11-18T16:09:10.693Z,98138.97
2022-11-18T16:12:00.980Z,98143.53
2022-11-18T16:14:32.804Z,98139.66
2022-11-18T16:17:04.380Z,98157.31
2022-11-18T16:19:36.024Z,98151.97
2022-11-18T16:22:07.581Z,98151.78
2022-11-18T16:24:42.910Z,98170.78
2022-11-18T16:27:20.659Z,98181.91
2022-11-18T16:29:52.569Z,98176.28
2022-11-18T16:32:26.854Z,98179.19
2022-11-18T16:35:01.432Z,98187.38
2022-11-18T16:37:34.512Z,98186.69
2022-11-18T16:40:06.686Z,98187.81
2022-11-18T16:42:38.317Z,98197.78
2022-11-18T16:45:10.615Z,98195.63
2022-11-18T16:47:43.192Z,98210.50
2022-11-18T16:50:14.939Z,98208.59
2022-11-18T16:52:46.543Z,98213.97
2022-11-18T16:55:18.077Z,98211.91
2022-11-18T16:57:49.663Z,98238.66
2022-11-18T17:00:37.840Z,98234.97
2022-11-18T17:03:12.898Z,98242.66
2022-11-18T17:05:44.482Z,98238.97
2022-11-18T17:08:16.118Z,98242.97
2022-11-18T17:10:47.788Z,98241.63
2022-11-18T17:13:19.626Z,98248.06
2022-11-18T17:15:51.208Z,98254.91
2022-11-18T17:18:22.811Z,98260.38
2022-11-18T17:20:54.415Z,98265.84
2022-11-18T17:23:28.496Z,98260.50
2022-11-18T17:26:01.185Z,98284.63
2022-11-18T17:28:35.118Z,98279.66
2022-11-18T17:31:08.764Z,98294.44
2022-11-18T17:33:41.172Z,98285.00
2022-11-18T17:36:18.940Z,98293.22
2022-11-18T17:38:53.011Z,98285.28
2022-11-18T17:41:45.171Z,98292.13
2022-11-18T17:44:17.878Z,98294.84
2022-11-18T17:46:50.084Z,98308.16
2022-11-18T17:49:22.491Z,98303.09
2022-11-18T17:51:54.633Z,98317.44
2022-11-18T17:54:36.143Z,98328.38
2022-11-18T17:57:07.770Z,98322.22
2022-11-18T17:59:39.409Z,98331.78
2022-11-18T18:02:14.288Z,98345.25
2022-11-18T18:04:46.090Z,98340.31
2022-11-18T18:07:19.771Z,98340.31
2022-11-18T18:09:51.465Z,98338.41
2022-11-18T18:12:41.799Z,98347.56
2022-11-18T18:15:13.437Z,98359.19
2022-11-18T18:17:51.369Z,98359.03
2022-11-18T18:20:23.298Z,98366.41
2022-11-18T18:22:54.912Z,98360.13
2022-11-18T18:25:26.526Z,98354.63
2022-11-18T18:27:58.106Z,98374.44
2022-11-18T18:30:29.763Z,98380.16
2022-11-18T18:33:04.269Z,98389.47
2022-11-18T18:35:41.269Z,98383.06
2022-11-18T18:38:12.945Z,98390.31
2022-11-18T18:40:44.571Z,98387.00
2022-11-18T18:43:16.140Z,98399.16
2022-11-18T18:46:06.292Z,98402.31
2022-11-18T18:48:37.859Z,98404.25
2022-11-18T18:51:09.774Z,98419.31
2022-11-18T18:53:41.622Z,98416.22
2022-11-18T18:56:13.385Z,98425.63
2022-11-18T18:58:45.495Z,98427.50
2022-11-18T19:01:18.980Z,98433.44
2022-11-18T19:03:59.261Z,98435.09
2022-11-18T19:09:29.768Z,98436.38
2022-11-18T19:12:20.391Z,98422.56
2022-11-18T19:14:52.071Z,98436.97
2022-11-18T19:17:24.010Z,98446.81
2022-11-18T19:20:33.605Z,98458.03
2022-11-18T19:23:10.363Z,98452.25
2022-11-18T19:25:44.123Z,98454.31
2022-11-18T19:28:15.819Z,98464.09
2022-11-18T19:30:47.725Z,98457.16
2022-11-18T19:33:19.504Z,98472.00
2022-11-18T19:35:51.115Z,98474.44
2022-11-18T19:38:28.652Z,98473.38
2022-11-18T19:41:08.996Z,98475.97
2022-11-18T19:43:41.900Z,98480.78
2022-11-18T19:46:13.584Z,98489.75
2022-11-18T19:48:48.449Z,98492.78
2022-11-18T19:51:19.962Z,98497.47
2022-11-18T19:53:54.608Z,98493.00
2022-11-18T19:56:28.617Z,98497.19
2022-11-18T19:59:00.269Z,98495.53
2022-11-18T20:01:32.113Z,98501.34
2022-11-18T20:04:07.073Z,98498.19
2022-11-18T20:06:39.947Z,98502.88
2022-11-18T20:09:11.838Z,98504.78
2022-11-18T20:11:44.512Z,98510.59
2022-11-18T20:14:16.585Z,98508.22
2022-11-18T20:16:48.269Z,98510.47
2022-11-18T20:19:20.177Z,98517.00
2022-11-18T20:21:52.662Z,98514.88
2022-11-18T20:24:24.611Z,98513.41
2022-11-18T20:26:56.183Z,98507.88
2022-11-18T20:29:27.901Z,98515.41
2022-11-18T20:31:59.562Z,98524.75
2022-11-18T20:34:31.194Z,98531.56
2022-11-18T20:37:02.937Z,98525.78
2022-11-18T20:39:34.554Z,98526.84
2022-11-18T20:42:24.785Z,98527.56
2022-11-18T20:44:56.473Z,98530.25
2022-11-18T20:47:28.059Z,98531.66
2022-11-18T20:49:59.758Z,98534.03
2022-11-18T20:52:33.795Z,98535.09
2022-11-18T20:55:06.132Z,98535.09
2022-11-18T20:57:37.862Z,98545.47
2022-11-18T21:00:10.184Z,98540.16
2022-11-18T21:02:41.784Z,98548.06
2022-11-18T21:05:13.434Z,98550.78
2022-11-18T21:07:45.099Z,98557.63
2022-11-18T21:10:17.600Z,98558.31
2022-11-18T21:13:07.936Z,98551.34
2022-11-18T21:15:39.568Z,98557.38
2022-11-18T21:18:11.116Z,98553.13
2022-11-18T21:21:01.143Z,98551.72
2022-11-18T21:23:35.472Z,98559.03
2022-11-18T21:26:12.892Z,98566.78
2022-11-18T21:28:45.115Z,98572.22
2022-11-18T21:31:21.956Z,98570.22
2022-11-18T21:33:55.889Z,98584.22
2022-11-18T21:36:30.529Z,98571.75
2022-11-18T21:39:04.992Z,98575.50
2022-11-18T21:41:37.013Z,98575.41
2022-11-18T21:44:10.737Z,98576.81
2022-11-18T21:46:42.411Z,98579.88
2022-11-18T21:49:17.456Z,98585.31
2022-11-18T21:51:49.500Z,98593.09
2022-11-18T21:54:21.260Z,98591.91
2022-11-18T21:56:53.849Z,98596.03
2022-11-18T21:59:25.486Z,98608.28
2022-11-18T22:01:57.120Z,98609.22
2022-11-18T22:04:47.539Z,98614.66
2022-11-18T22:07:23.978Z,98610.16
2022-11-18T22:09:55.657Z,98608.19
2022-11-18T22:12:27.325Z,98610.31
2022-11-18T22:14:58.928Z,98611.81
2022-11-18T22:17:30.620Z,98628.78
2022-11-18T22:20:02.781Z,98628.22
2022-11-18T22:22:34.462Z,98634.47
2022-11-18T22:25:06.517Z,98620.78
2022-11-18T22:27:38.139Z,98629.97
2022-11-18T22:30:10.199Z,98629.75
2022-11-18T22:32:43.476Z,98639.66
2022-11-18T22:35:15.175Z,98649.56
2022-11-18T22:37:46.838Z,98648.13
2022-11-18T22:40:18.533Z,98647.09
2022-11-18T22:42:50.615Z,98645.44
2022-11-18T22:45:22.407Z,98658.41
2022-11-18T22:47:54.083Z,98662.66
2022-11-18T22:50:28.666Z,98664.91
2022-11-18T22:53:02.905Z,98684.00
2022-11-18T22:55:34.503Z,98682.22
2022-11-18T22:58:06.231Z,98681.19
2022-11-18T23:00:37.914Z,98676.34
2022-11-18T23:03:09.512Z,98681.53
2022-11-18T23:05:42.595Z,98692.50
2022-11-18T23:08:17.290Z,98685.41
2022-11-18T23:10:49.136Z,98683.06
2022-11-18T23:13:39.500Z,98680.09
2022-11-18T23:16:11.075Z,98671.75
2022-11-18T23:18:47.285Z,98683.53
2022-11-18T23:21:18.919Z,98673.97
2022-11-18T23:23:52.623Z,98670.34
2022-11-18T23:26:24.757Z,98676.56
2022-11-18T23:28:56.452Z,98670.91
2022-11-18T23:31:28.413Z,98667.47
2022-11-18T23:34:00.286Z,98680.94
2022-11-18T23:36:31.892Z,98680.34
2022-11-18T23:39:04.734Z,98686.25
2022-11-18T23:41:36.817Z,98687.91
2022-11-18T23:44:08.495Z,98689.44
2022-11-18T23:46:40.042Z,98696.16
2022-11-18T23:49:12.605Z,98682.84
2022-11-18T23:51:44.204Z,98687.41
2022-11-18T23:54:15.764Z,98687.31
2022-11-18T23:56:47.431Z,98692.50
2022-11-18T23:59:19.440Z,98695.34
